Terminal Aerodrome Forecast
Issued by NWS Cleveland, OH

Home | Current Version | Previous Version | Text Only | Print | Product List | Glossary Off
Versions: 1 2 3 4 5 6 7 8 9 10 11 12 13 14 15 16 17 18

000
FTUS41 KCLE 271135
TAFTOL
TAF
KTOL 271135Z 2712/2812 35003KT P6SM SCT050
      TEMPO 2712/2713 4SM BR SCT007 SCT050
     FM271300 33003KT 6SM BR SCT025
      TEMPO 2713/2716 BKN025
     FM271600 13003KT P6SM BKN040
     FM280100 VRB03KT P6SM FEW040=

USA.gov is the U.S. government's official web portal to all federal, state and local government web resources and services.